createdAt,value
2019-02-25T00:00:24.485Z,65.69
2019-02-25T00:02:52.825Z,65.88
2019-02-25T00:05:21.426Z,66.14
2019-02-25T00:07:49.769Z,66.30
2019-02-25T00:10:18.069Z,66.47
2019-02-25T00:12:46.377Z,66.61
2019-02-25T00:15:14.745Z,66.64
2019-02-25T00:17:43.137Z,66.69
2019-02-25T00:20:12.666Z,66.69
2019-02-25T00:22:40.941Z,66.77
2019-02-25T00:25:11.180Z,66.96
2019-02-25T00:27:39.557Z,66.86
2019-02-25T00:30:11.344Z,66.82
2019-02-25T00:32:39.658Z,66.96
2019-02-25T00:35:07.964Z,67.00
2019-02-25T00:37:36.553Z,67.25
2019-02-25T00:40:07.103Z,67.38
2019-02-25T00:42:35.421Z,67.53
2019-02-25T00:45:05.486Z,67.81
2019-02-25T00:47:34.094Z,67.96
2019-02-25T00:50:02.795Z,68.04
2019-02-25T00:52:31.078Z,67.91
2019-02-25T00:54:59.391Z,67.96
2019-02-25T00:57:27.955Z,67.87
2019-02-25T00:59:56.276Z,67.90
2019-02-25T01:02:24.580Z,67.90
2019-02-25T01:04:53.766Z,68.02
2019-02-25T01:07:22.363Z,68.00
2019-02-25T01:09:50.662Z,67.92
2019-02-25T01:12:18.958Z,68.05
2019-02-25T01:14:47.269Z,68.32
2019-02-25T01:17:15.966Z,68.44
2019-02-25T01:19:44.265Z,68.41
2019-02-25T01:22:12.609Z,68.36
2019-02-25T01:24:41.206Z,68.20
2019-02-25T01:27:10.067Z,68.09
2019-02-25T01:29:38.420Z,68.06
2019-02-25T01:32:07.055Z,68.17
2019-02-25T01:34:35.640Z,68.22
2019-02-25T01:37:04.028Z,68.26
2019-02-25T01:39:32.316Z,68.34
2019-02-25T01:42:00.871Z,68.26
2019-02-25T01:44:29.156Z,68.21
2019-02-25T01:46:57.481Z,68.25
2019-02-25T01:49:25.812Z,68.27
2019-02-25T01:51:54.118Z,68.40
2019-02-25T01:54:22.418Z,68.48
2019-02-25T01:56:50.705Z,68.45
2019-02-25T01:59:19.013Z,68.54
2019-02-25T02:01:47.317Z,68.86
2019-02-25T02:04:15.702Z,69.06
2019-02-25T02:06:44.262Z,69.05
2019-02-25T02:09:12.963Z,69.15
2019-02-25T02:11:41.264Z,69.31
2019-02-25T02:14:09.591Z,69.52
2019-02-25T02:16:37.890Z,69.63
2019-02-25T02:19:06.211Z,69.79
2019-02-25T02:21:34.559Z,69.89
2019-02-25T02:24:02.874Z,70.03
2019-02-25T02:26:31.202Z,70.21
2019-02-25T02:28:59.787Z,70.24
2019-02-25T02:31:28.111Z,70.42
2019-02-25T02:33:56.424Z,70.62
2019-02-25T02:36:24.739Z,70.86
2019-02-25T02:38:53.107Z,70.84
2019-02-25T02:41:21.392Z,70.91
2019-02-25T02:43:49.715Z,70.87
2019-02-25T02:46:23.891Z,71.00
2019-02-25T02:48:55.452Z,71.13
2019-02-25T02:51:23.737Z,70.96
2019-02-25T02:53:52.050Z,70.80
2019-02-25T02:56:20.656Z,70.62
2019-02-25T02:58:48.988Z,70.66
2019-02-25T03:01:17.602Z,70.78
2019-02-25T03:03:45.928Z,70.82
2019-02-25T03:06:14.223Z,70.90
2019-02-25T03:08:42.513Z,71.05
2019-02-25T03:11:11.128Z,71.30
2019-02-25T03:13:39.443Z,71.39
2019-02-25T03:16:07.743Z,71.58
2019-02-25T03:18:36.094Z,71.77
2019-02-25T03:21:04.394Z,72.04
2019-02-25T03:23:33.010Z,72.18
2019-02-25T03:26:01.312Z,72.23
2019-02-25T03:28:29.595Z,72.16
2019-02-25T03:30:57.899Z,72.14
2019-02-25T03:33:26.209Z,72.15
2019-02-25T03:35:54.525Z,72.09
2019-02-25T03:38:22.840Z,71.80
2019-02-25T03:40:51.136Z,71.71
2019-02-25T03:43:19.421Z,71.59
2019-02-25T03:45:47.751Z,71.77
2019-02-25T03:48:16.037Z,71.78
2019-02-25T03:50:44.334Z,71.92
2019-02-25T03:53:12.680Z,71.98
2019-02-25T03:55:40.944Z,72.09
2019-02-25T03:58:09.256Z,71.94
2019-02-25T04:00:37.541Z,71.85
2019-02-25T04:03:05.890Z,71.74
2019-02-25T04:05:34.186Z,71.59
2019-02-25T04:08:02.913Z,71.66
2019-02-25T04:10:31.195Z,71.87
2019-02-25T04:12:59.507Z,72.01
2019-02-25T04:15:29.796Z,72.09
2019-02-25T04:17:58.104Z,72.22
2019-02-25T04:20:26.436Z,72.25
2019-02-25T04:22:54.727Z,72.37
2019-02-25T04:25:23.138Z,72.48
2019-02-25T04:27:51.808Z,72.36
2019-02-25T04:30:20.086Z,72.42
2019-02-25T04:32:48.401Z,72.19
2019-02-25T04:35:16.721Z,71.98
2019-02-25T04:37:45.019Z,71.97
2019-02-25T04:40:14.024Z,71.91
2019-02-25T04:42:42.286Z,72.16
2019-02-25T04:45:13.134Z,72.45
2019-02-25T04:47:41.427Z,72.60
2019-02-25T04:50:11.084Z,72.48
2019-02-25T04:52:39.390Z,72.42
2019-02-25T04:55:10.408Z,72.50
2019-02-25T04:57:38.880Z,72.68
2019-02-25T05:00:12.832Z,72.79
2019-02-25T05:02:41.132Z,72.93
2019-02-25T05:05:09.788Z,73.13
2019-02-25T05:07:38.432Z,73.27
2019-02-25T05:10:10.677Z,73.32
2019-02-25T05:12:40.707Z,73.25
2019-02-25T05:15:11.223Z,73.21
2019-02-25T05:17:39.828Z,73.31
2019-02-25T05:20:08.799Z,73.51
2019-02-25T05:22:37.646Z,73.80
2019-02-25T05:25:08.551Z,73.87
2019-02-25T05:27:36.860Z,73.87
2019-02-25T05:30:08.864Z,73.82
2019-02-25T05:32:37.267Z,73.76
2019-02-25T05:35:07.941Z,73.93
2019-02-25T05:37:36.301Z,74.17
2019-02-25T05:40:07.263Z,74.26
2019-02-25T05:42:35.574Z,74.16
2019-02-25T05:45:04.550Z,73.81
2019-02-25T05:47:32.843Z,73.67
2019-02-25T05:50:01.148Z,73.49
2019-02-25T05:52:29.449Z,73.29
2019-02-25T05:54:57.759Z,73.47
2019-02-25T05:57:26.052Z,73.64
2019-02-25T05:59:54.398Z,73.86
2019-02-25T06:02:22.768Z,73.98
2019-02-25T06:04:51.097Z,73.95
2019-02-25T06:07:19.419Z,74.05
2019-02-25T06:09:47.743Z,74.08
2019-02-25T06:12:16.074Z,74.23
2019-02-25T06:14:44.383Z,74.24
2019-02-25T06:17:13.008Z,74.06
2019-02-25T06:19:41.345Z,74.00
2019-02-25T06:22:09.643Z,74.07
2019-02-25T06:24:37.945Z,74.24
2019-02-25T06:27:06.269Z,74.08
2019-02-25T06:29:34.565Z,73.81
2019-02-25T06:32:03.173Z,73.68
2019-02-25T06:34:32.066Z,73.59
2019-02-25T06:37:00.636Z,73.61
2019-02-25T06:39:28.941Z,73.60
2019-02-25T06:41:57.604Z,73.53
2019-02-25T06:44:25.908Z,73.59
2019-02-25T06:46:54.319Z,73.56
2019-02-25T06:49:22.639Z,73.70
2019-02-25T06:51:50.937Z,73.75
2019-02-25T06:54:19.245Z,73.78
2019-02-25T06:56:47.572Z,73.90
2019-02-25T06:59:18.218Z,73.82
2019-02-25T07:01:46.182Z,73.66
2019-02-25T07:04:25.307Z,73.51
2019-02-25T07:06:55.274Z,73.35
2019-02-25T07:09:25.651Z,73.36
2019-02-25T07:12:12.197Z,73.33
2019-02-25T07:14:42.147Z,73.29
2019-02-25T07:17:12.090Z,73.30
2019-02-25T07:19:42.036Z,73.43
2019-02-25T07:22:12.017Z,73.40
2019-02-25T07:24:41.965Z,73.12
2019-02-25T07:27:28.240Z,73.01
2019-02-25T07:30:14.390Z,72.92
2019-02-25T07:32:56.379Z,72.70
2019-02-25T07:35:29.275Z,72.43
2019-02-25T07:37:59.250Z,72.48
2019-02-25T07:40:35.081Z,72.03
2019-02-25T07:43:11.442Z,71.94
2019-02-25T07:45:46.848Z,71.60
2019-02-25T07:48:31.593Z,71.66
2019-02-25T07:51:19.808Z,71.41
2019-02-25T07:54:02.107Z,71.12
2019-02-25T07:56:43.957Z,70.60
2019-02-25T07:59:19.430Z,70.36
2019-02-25T08:01:52.056Z,70.24
2019-02-25T08:04:24.686Z,70.19
2019-02-25T08:07:06.481Z,69.91
2019-02-25T08:09:36.429Z,69.53
2019-02-25T08:12:06.743Z,69.05
2019-02-25T08:14:52.874Z,69.22
2019-02-25T08:17:25.993Z,69.09
2019-02-25T08:20:12.399Z,68.65
2019-02-25T08:22:44.775Z,68.86
2019-02-25T08:25:32.783Z,68.85
2019-02-25T08:28:18.946Z,68.79
2019-02-25T08:30:51.841Z,68.81
2019-02-25T08:33:30.924Z,68.93
2019-02-25T08:36:15.947Z,69.01
2019-02-25T08:38:52.155Z,69.03
2019-02-25T08:41:22.067Z,68.65
2019-02-25T08:44:00.772Z,68.24
2019-02-25T08:46:34.098Z,67.92
2019-02-25T08:49:06.829Z,67.40
2019-02-25T08:51:35.258Z,66.98
2019-02-25T08:54:03.589Z,66.46
2019-02-25T08:56:31.931Z,66.17
2019-02-25T08:59:00.225Z,66.16
2019-02-25T09:01:28.875Z,65.53
2019-02-25T09:03:57.361Z,65.33
2019-02-25T09:06:25.928Z,64.91
2019-02-25T09:08:54.319Z,64.42
2019-02-25T09:11:22.627Z,63.99
2019-02-25T09:13:50.987Z,63.58
2019-02-25T09:16:19.283Z,63.13
2019-02-25T09:18:48.294Z,62.55
2019-02-25T09:21:16.661Z,62.40
2019-02-25T09:23:44.971Z,62.21
2019-02-25T09:26:13.269Z,61.76
2019-02-25T09:28:41.846Z,61.67
2019-02-25T09:31:10.311Z,61.44
2019-02-25T09:33:38.598Z,61.05
2019-02-25T09:36:07.824Z,60.85
2019-02-25T09:38:36.120Z,60.71
2019-02-25T09:41:04.446Z,60.74
2019-02-25T09:43:32.728Z,60.64
2019-02-25T09:46:01.285Z,60.07
2019-02-25T09:48:29.573Z,59.82
2019-02-25T09:50:58.329Z,59.40
2019-02-25T09:53:26.613Z,59.22
2019-02-25T09:55:54.922Z,59.04
2019-02-25T09:58:23.532Z,59.02
2019-02-25T10:00:52.206Z,58.71
2019-02-25T10:03:20.498Z,58.80
2019-02-25T10:05:48.818Z,58.00
2019-02-25T10:08:17.115Z,57.53
2019-02-25T10:10:45.730Z,56.85
2019-02-25T10:13:15.594Z,56.87
2019-02-25T10:15:44.125Z,56.98
2019-02-25T10:18:12.529Z,57.11
2019-02-25T10:20:40.907Z,56.62
2019-02-25T10:23:09.676Z,56.47
2019-02-25T10:25:38.086Z,56.28
2019-02-25T10:28:06.374Z,54.87
2019-02-25T10:30:34.734Z,54.57
2019-02-25T10:33:03.040Z,54.16
2019-02-25T10:35:31.342Z,52.31
2019-02-25T10:38:01.074Z,51.46
2019-02-25T10:40:29.696Z,50.58
2019-02-25T10:42:58.228Z,50.29
2019-02-25T10:45:26.840Z,50.27
2019-02-25T10:47:58.408Z,49.84
2019-02-25T10:50:25.158Z,49.63
2019-02-25T10:53:03.008Z,49.37
2019-02-25T10:55:32.581Z,49.17
2019-02-25T10:58:02.056Z,48.98
2019-02-25T11:00:31.417Z,48.62
2019-02-25T11:02:59.993Z,48.66
2019-02-25T11:05:30.521Z,48.43
2019-02-25T11:07:59.319Z,47.95
2019-02-25T11:10:35.270Z,47.61
2019-02-25T11:13:04.305Z,47.43
2019-02-25T11:15:34.208Z,47.03
2019-02-25T11:18:02.535Z,46.61
2019-02-25T11:20:31.733Z,45.94
2019-02-25T11:23:01.165Z,45.88
2019-02-25T11:25:30.192Z,44.89
2019-02-25T11:27:58.534Z,43.74
2019-02-25T11:30:26.930Z,43.58
2019-02-25T11:32:56.270Z,42.70
2019-02-25T11:35:25.325Z,42.22
2019-02-25T11:37:56.380Z,42.04
2019-02-25T11:40:25.899Z,41.82
2019-02-25T11:42:54.104Z,41.48
2019-02-25T11:45:22.413Z,41.35
2019-02-25T11:47:50.701Z,41.55
2019-02-25T11:50:20.267Z,41.62
2019-02-25T11:52:48.603Z,41.34
2019-02-25T11:55:17.152Z,41.43
2019-02-25T11:57:45.518Z,41.37
2019-02-25T12:00:23.099Z,41.04
2019-02-25T12:02:51.519Z,41.42
2019-02-25T12:05:20.258Z,40.93
2019-02-25T12:07:48.581Z,40.56
2019-02-25T12:10:17.811Z,40.57
2019-02-25T12:12:46.203Z,40.56
2019-02-25T12:15:19.153Z,40.17
2019-02-25T12:17:47.410Z,39.81
2019-02-25T12:20:16.189Z,39.16
2019-02-25T12:22:44.585Z,38.98
2019-02-25T12:25:21.507Z,38.88
2019-02-25T12:27:49.829Z,38.17
2019-02-25T12:30:22.450Z,37.64
2019-02-25T12:32:50.776Z,37.54
2019-02-25T12:35:19.396Z,37.67
2019-02-25T12:37:47.889Z,37.31
2019-02-25T12:40:17.122Z,36.90
2019-02-25T12:42:45.473Z,36.20
2019-02-25T12:45:14.912Z,35.85
2019-02-25T12:47:43.215Z,35.71
2019-02-25T12:50:13.657Z,35.38
2019-02-25T12:52:42.025Z,35.58
2019-02-25T12:55:14.402Z,35.70
2019-02-25T12:57:42.779Z,36.14
2019-02-25T13:00:16.952Z,35.60
2019-02-25T13:02:45.241Z,35.50
2019-02-25T13:05:16.243Z,35.79
2019-02-25T13:07:44.548Z,35.96
2019-02-25T13:10:15.454Z,35.88
2019-02-25T13:12:43.745Z,36.08
2019-02-25T13:15:17.563Z,35.60
2019-02-25T13:17:45.853Z,35.36
2019-02-25T13:20:15.463Z,35.27
2019-02-25T13:22:43.776Z,35.07
2019-02-25T13:25:26.530Z,34.98
2019-02-25T13:27:56.434Z,34.90
2019-02-25T13:30:24.832Z,34.90
2019-02-25T13:32:53.454Z,34.93
2019-02-25T13:35:22.003Z,34.89
2019-02-25T13:37:50.313Z,35.09
2019-02-25T13:40:18.954Z,35.22
2019-02-25T13:42:47.293Z,35.07
2019-02-25T13:45:17.797Z,35.21
2019-02-25T13:47:46.118Z,35.48
2019-02-25T13:50:15.991Z,35.62
2019-02-25T13:52:48.540Z,35.80
2019-02-25T13:55:22.214Z,35.65
2019-02-25T13:57:50.567Z,35.59
2019-02-25T14:00:20.665Z,35.45
2019-02-25T14:02:49.671Z,35.48
2019-02-25T14:05:18.174Z,35.50
2019-02-25T14:07:46.496Z,35.61
2019-02-25T14:10:15.850Z,35.69
2019-02-25T14:12:44.168Z,35.73
2019-02-25T14:15:25.113Z,35.66
2019-02-25T14:17:53.587Z,35.45
2019-02-25T14:20:23.127Z,35.45
2019-02-25T14:22:51.449Z,35.37
2019-02-25T14:25:25.671Z,35.50
2019-02-25T14:27:54.263Z,35.27
2019-02-25T14:30:23.998Z,35.03
2019-02-25T14:32:53.394Z,34.90
2019-02-25T14:35:28.545Z,34.83
2019-02-25T14:38:02.838Z,34.99
2019-02-25T14:40:32.039Z,35.08
2019-02-25T14:42:59.986Z,35.18
2019-02-25T14:45:31.487Z,35.31
2019-02-25T14:47:59.883Z,35.12
2019-02-25T14:50:29.606Z,35.06
2019-02-25T14:52:57.988Z,35.27
2019-02-25T14:55:28.325Z,35.40
2019-02-25T14:57:59.961Z,35.80
2019-02-25T15:00:29.146Z,35.79
2019-02-25T15:02:58.084Z,35.88
2019-02-25T15:05:26.982Z,36.11
2019-02-25T15:07:55.389Z,36.27
2019-02-25T15:10:26.548Z,36.31
2019-02-25T15:12:56.546Z,36.07
2019-02-25T15:15:24.411Z,35.99
2019-02-25T15:17:52.893Z,36.03
2019-02-25T15:20:23.406Z,36.37
2019-02-25T15:22:52.415Z,36.25
2019-02-25T15:25:21.211Z,36.16
2019-02-25T15:27:49.555Z,36.08
2019-02-25T15:30:30.712Z,35.93
2019-02-25T15:32:59.620Z,35.99
2019-02-25T15:35:31.835Z,36.17
2019-02-25T15:38:00.323Z,36.39
2019-02-25T15:40:29.038Z,36.38
2019-02-25T15:43:02.446Z,36.61
2019-02-25T15:45:35.005Z,36.63
2019-02-25T15:48:03.499Z,36.93
2019-02-25T15:50:31.836Z,37.00
2019-02-25T15:53:03.315Z,37.16
2019-02-25T15:55:31.522Z,37.51
2019-02-25T15:57:59.854Z,37.58
2019-02-25T16:00:30.011Z,37.70
2019-02-25T16:02:58.720Z,37.71
2019-02-25T16:05:29.567Z,37.89
2019-02-25T16:08:00.044Z,37.95
2019-02-25T16:10:28.820Z,38.07
2019-02-25T16:12:57.863Z,38.16
2019-02-25T16:15:27.321Z,38.18
2019-02-25T16:17:55.655Z,38.19
2019-02-25T16:20:26.636Z,38.29
2019-02-25T16:22:56.583Z,38.35
2019-02-25T16:25:27.544Z,38.48
2019-02-25T16:27:56.903Z,38.71
2019-02-25T16:30:26.341Z,38.91
2019-02-25T16:32:55.589Z,39.08
2019-02-25T16:35:23.900Z,39.30
2019-02-25T16:37:53.054Z,39.43
2019-02-25T16:40:24.412Z,39.72
2019-02-25T16:42:55.003Z,39.98
2019-02-25T16:45:32.418Z,40.20
2019-02-25T16:47:57.100Z,40.23
2019-02-25T16:50:25.496Z,40.36
2019-02-25T16:52:53.767Z,40.72
2019-02-25T16:55:27.765Z,40.96
2019-02-25T16:57:56.107Z,41.14
2019-02-25T17:00:29.883Z,41.33
2019-02-25T17:03:01.387Z,41.80
2019-02-25T17:05:28.302Z,43.17
2019-02-25T17:07:56.866Z,43.55
2019-02-25T17:10:29.140Z,44.31
2019-02-25T17:12:57.044Z,44.67
2019-02-25T17:15:26.982Z,45.08
2019-02-25T17:17:58.330Z,45.84
2019-02-25T17:20:27.824Z,46.36
2019-02-25T17:22:55.692Z,47.21
2019-02-25T17:25:26.898Z,48.01
2019-02-25T17:27:54.064Z,48.69
2019-02-25T17:30:24.132Z,49.18
2019-02-25T17:32:54.880Z,49.56
2019-02-25T17:35:25.806Z,49.55
2019-02-25T17:37:55.516Z,50.07
2019-02-25T17:40:23.907Z,50.67
2019-02-25T17:42:54.017Z,51.13
2019-02-25T17:45:25.110Z,51.56
2019-02-25T17:47:58.275Z,51.83
2019-02-25T17:50:24.352Z,52.01
2019-02-25T17:52:52.958Z,52.29
2019-02-25T17:55:27.261Z,52.65
2019-02-25T17:57:58.587Z,52.94
2019-02-25T18:00:44.705Z,53.30
2019-02-25T18:03:14.942Z,53.85
2019-02-25T18:05:43.451Z,54.28
2019-02-25T18:08:13.336Z,54.73
2019-02-25T18:10:43.126Z,55.23
2019-02-25T18:13:12.336Z,55.65
2019-02-25T18:15:40.947Z,56.15
2019-02-25T18:18:12.011Z,56.71
2019-02-25T18:20:39.470Z,56.99
2019-02-25T18:23:08.241Z,57.22
2019-02-25T18:25:37.673Z,57.46
2019-02-25T18:28:08.477Z,57.60
2019-02-25T18:30:37.726Z,58.00
2019-02-25T18:33:06.392Z,58.18
2019-02-25T18:35:36.872Z,58.27
2019-02-25T18:38:07.246Z,58.31
2019-02-25T18:40:36.480Z,58.46
2019-02-25T18:43:06.791Z,58.66
2019-02-25T18:45:37.826Z,58.91
2019-02-25T18:48:06.481Z,59.12
2019-02-25T18:50:35.051Z,59.38
2019-02-25T18:53:03.821Z,59.63
2019-02-25T18:55:34.186Z,59.73
2019-02-25T18:58:02.313Z,59.78
2019-02-25T19:00:37.446Z,59.98
2019-02-25T19:03:06.781Z,60.26
2019-02-25T19:05:35.259Z,60.56
2019-02-25T19:08:12.015Z,60.89
2019-02-25T19:10:41.284Z,61.18
2019-02-25T19:13:08.089Z,61.51
2019-02-25T19:15:37.372Z,61.77
2019-02-25T19:18:06.936Z,62.05
2019-02-25T19:20:36.740Z,62.32
2019-02-25T19:23:09.467Z,62.40
2019-02-25T19:25:36.809Z,62.56
2019-02-25T19:28:05.646Z,62.63
2019-02-25T19:30:34.515Z,62.60
2019-02-25T19:33:10.959Z,62.72
2019-02-25T19:35:35.413Z,62.85
2019-02-25T19:38:05.837Z,62.98
2019-02-25T19:40:33.955Z,63.12
2019-02-25T19:43:04.281Z,63.31
2019-02-25T19:45:33.878Z,63.52
2019-02-25T19:48:04.747Z,63.69
2019-02-25T19:50:34.692Z,63.97
2019-02-25T19:53:05.242Z,64.15
2019-02-25T19:55:33.966Z,64.31
2019-02-25T19:58:03.703Z,64.57
2019-02-25T20:00:33.884Z,64.83
2019-02-25T20:03:05.754Z,65.23
2019-02-25T20:05:33.377Z,65.54
2019-02-25T20:08:01.836Z,65.70
2019-02-25T20:10:30.857Z,65.84
2019-02-25T20:12:59.351Z,65.95
2019-02-25T20:15:27.653Z,66.11
2019-02-25T20:17:55.945Z,66.22
2019-02-25T20:20:25.964Z,66.46
2019-02-25T20:22:54.278Z,66.69
2019-02-25T20:25:25.849Z,66.80
2019-02-25T20:27:54.976Z,66.71
2019-02-25T20:30:24.118Z,66.76
2019-02-25T20:32:53.819Z,66.76
2019-02-25T20:35:24.360Z,66.81
2019-02-25T20:37:53.756Z,67.03
2019-02-25T20:40:24.145Z,67.12
2019-02-25T20:42:53.564Z,67.24
2019-02-25T20:45:30.037Z,67.32
2019-02-25T20:47:59.644Z,67.23
2019-02-25T20:50:28.015Z,67.26
2019-02-25T20:52:59.140Z,67.25
2019-02-25T20:57:19.826Z,67.36
2019-02-25T20:59:48.815Z,67.39
2019-02-25T21:02:18.799Z,67.32
2019-02-25T21:04:50.122Z,67.04
2019-02-25T21:07:18.176Z,66.77
2019-02-25T21:09:46.498Z,66.50
2019-02-25T21:12:15.790Z,66.26
2019-02-25T21:14:45.109Z,65.54
2019-02-25T21:17:13.443Z,65.55
2019-02-25T21:19:43.838Z,65.72
2019-02-25T21:22:11.777Z,66.07
2019-02-25T21:24:40.082Z,66.49
2019-02-25T21:27:10.441Z,66.73
2019-02-25T21:29:41.078Z,66.90
2019-02-25T21:32:12.764Z,66.89
2019-02-25T21:34:38.955Z,66.90
2019-02-25T21:37:07.247Z,66.96
2019-02-25T21:39:36.601Z,67.13
2019-02-25T21:42:06.420Z,67.25
2019-02-25T21:44:36.424Z,67.63
2019-02-25T21:47:06.330Z,67.89
2019-02-25T21:49:36.597Z,68.05
2019-02-25T21:52:06.255Z,68.03
2019-02-25T21:54:35.882Z,67.90
2019-02-25T21:57:05.398Z,67.90
2019-02-25T21:59:36.507Z,67.86
2019-02-25T22:02:04.536Z,67.94
2019-02-25T22:04:32.846Z,68.26
2019-02-25T22:07:02.541Z,68.47
2019-02-25T22:09:39.096Z,68.54
2019-02-25T22:12:01.090Z,68.46
2019-02-25T22:14:29.415Z,68.39
2019-02-25T22:16:58.852Z,68.55
2019-02-25T22:19:27.741Z,68.69
2019-02-25T22:21:58.056Z,68.96
2019-02-25T22:24:29.100Z,69.22
2019-02-25T22:26:57.947Z,69.39
2019-02-25T22:29:26.491Z,69.37
2019-02-25T22:31:54.802Z,69.50
2019-02-25T22:34:25.266Z,69.71
2019-02-25T22:36:55.823Z,69.81
2019-02-25T22:39:25.135Z,69.66
2019-02-25T22:41:54.108Z,69.61
2019-02-25T22:44:23.092Z,69.75
2019-02-25T22:46:52.722Z,69.79
2019-02-25T22:49:22.096Z,69.73
2019-02-25T22:51:51.919Z,69.73
2019-02-25T22:54:21.585Z,69.70
2019-02-25T22:56:49.941Z,69.79
2019-02-25T22:59:20.754Z,69.98
2019-02-25T23:01:52.071Z,69.90
2019-02-25T23:04:19.686Z,69.96
2019-02-25T23:06:49.696Z,69.90
2019-02-25T23:09:21.236Z,69.73
2019-02-25T23:11:50.563Z,69.54
2019-02-25T23:14:19.120Z,69.47
2019-02-25T23:16:47.932Z,69.40
2019-02-25T23:19:18.015Z,69.37
2019-02-25T23:21:46.315Z,69.39
2019-02-25T23:24:14.624Z,69.50
2019-02-25T23:26:42.926Z,69.61
2019-02-25T23:29:11.529Z,69.81
2019-02-25T23:31:39.842Z,69.90
2019-02-25T23:34:10.294Z,69.90
2019-02-25T23:36:40.896Z,70.04
2019-02-25T23:39:08.537Z,70.39
2019-02-25T23:41:38.980Z,70.53
2019-02-25T23:44:08.664Z,70.36
2019-02-25T23:46:37.866Z,70.28
2019-02-25T23:49:06.912Z,70.51
2019-02-25T23:51:37.184Z,70.72
2019-02-25T23:54:05.243Z,70.70
2019-02-25T23:56:33.855Z,70.85
2019-02-25T23:59:02.142Z,70.97
